Time;durP1;ratioP1;P1;durP2;ratioP2;P2;SDS_P1;SDS_P2;PMS_P1;PMS_P2;Temp;Humidity;BMP_temperature;BMP_pressure;BME280_temperature;BME280_humidity;BME280_pressure;Samples;Min_cycle;Max_cycle;Signal;HPM_P1;HPM_P2
2024/02/25 00:01:12;;;;;;;1.40;1.30;;;5.50;99.90;;;;;;5032028;28;20508;-68
2024/02/25 00:03:38;;;;;;;2.10;1.00;;;5.50;99.90;;;;;;5032748;28;20535;-66
2024/02/25 00:06:03;;;;;;;1.40;1.00;;;5.50;99.90;;;;;;5032718;28;20200;-66
2024/02/25 00:08:29;;;;;;;2.57;1.30;;;5.50;99.90;;;;;;5032329;28;20239;-68
2024/02/25 00:10:55;;;;;;;2.33;1.17;;;5.50;99.90;;;;;;5032659;28;20247;-68
2024/02/25 00:13:21;;;;;;;2.90;1.20;;;5.60;99.90;;;;;;5032605;28;20185;-65
2024/02/25 00:15:47;;;;;;;1.50;1.10;;;5.60;99.90;;;;;;5031888;28;20799;-68
2024/02/25 00:18:12;;;;;;;2.00;1.43;;;5.70;99.90;;;;;;5031570;28;20240;-66
2024/02/25 00:20:38;;;;;;;1.47;1.17;;;5.70;99.90;;;;;;5032457;28;20234;-67
2024/02/25 00:23:04;;;;;;;2.50;1.07;;;5.70;99.90;;;;;;5033078;28;20195;-68
2024/02/25 00:25:29;;;;;;;3.17;1.50;;;5.70;99.90;;;;;;5034149;28;20198;-67
2024/02/25 00:27:55;;;;;;;1.30;1.10;;;5.70;99.90;;;;;;5036979;28;20181;-66
2024/02/25 00:30:21;;;;;;;1.63;1.17;;;5.80;99.90;;;;;;5037389;28;20206;-68
2024/02/25 00:32:46;;;;;;;2.07;1.17;;;5.80;99.90;;;;;;5036902;28;20189;-68
2024/02/25 00:35:12;;;;;;;1.97;1.40;;;5.80;99.90;;;;;;5036256;28;20569;-66
2024/02/25 00:37:38;;;;;;;1.83;1.20;;;5.90;99.90;;;;;;5036198;28;20601;-68
2024/02/25 00:40:05;;;;;;;1.20;1.10;;;5.90;99.90;;;;;;5036792;28;20320;-68
2024/02/25 00:42:31;;;;;;;1.13;1.03;;;5.90;99.90;;;;;;5037219;28;20255;-68
2024/02/25 00:44:57;;;;;;;1.33;1.00;;;5.90;99.90;;;;;;5036911;28;21039;-65
2024/02/25 00:47:22;;;;;;;1.83;0.90;;;5.80;99.90;;;;;;5036297;28;20790;-66
2024/02/25 00:49:49;;;;;;;1.23;1.00;;;5.90;99.90;;;;;;5035143;28;20837;-67
2024/02/25 00:52:14;;;;;;;3.30;0.90;;;6.00;99.90;;;;;;5036947;28;20186;-70
2024/02/25 00:54:44;;;;;;;1.47;0.73;;;6.00;99.90;;;;;;5035801;28;20420;-66
2024/02/25 00:57:10;;;;;;;1.63;1.10;;;6.00;99.90;;;;;;5036108;28;20929;-66
2024/02/25 00:59:36;;;;;;;1.77;0.80;;;6.10;99.90;;;;;;5035330;28;20857;-68
2024/02/25 01:02:01;;;;;;;1.43;0.93;;;6.10;99.90;;;;;;5036909;28;20468;-68
2024/02/25 01:04:27;;;;;;;1.00;0.80;;;6.10;99.90;;;;;;5036121;28;20181;-69
2024/02/25 01:06:53;;;;;;;1.40;1.00;;;6.20;99.90;;;;;;5034432;28;20196;-69
2024/02/25 01:09:21;;;;;;;3.03;0.90;;;6.20;99.90;;;;;;5034881;28;20269;-69
2024/02/25 01:11:47;;;;;;;3.40;0.90;;;6.20;99.90;;;;;;5035764;28;20189;-69
2024/02/25 01:14:13;;;;;;;1.90;1.10;;;6.30;99.90;;;;;;5035736;28;20512;-68
2024/02/25 01:16:39;;;;;;;5.93;2.00;;;6.20;99.90;;;;;;5035211;28;20543;-69
2024/02/25 01:19:05;;;;;;;1.23;0.93;;;6.20;99.90;;;;;;5036562;28;20425;-69
2024/02/25 01:21:30;;;;;;;1.10;1.00;;;6.20;99.90;;;;;;5035521;28;20522;-68
2024/02/25 01:23:56;;;;;;;1.17;1.07;;;6.20;99.90;;;;;;5036044;28;20551;-67
2024/02/25 01:26:22;;;;;;;0.93;0.93;;;6.20;99.90;;;;;;5034359;28;20183;-65
2024/02/25 01:28:47;;;;;;;1.13;0.90;;;6.10;99.90;;;;;;5035096;28;20220;-68
2024/02/25 01:31:13;;;;;;;1.07;0.97;;;6.10;99.90;;;;;;5035107;28;20186;-68
2024/02/25 01:33:39;;;;;;;1.30;1.13;;;6.10;99.90;;;;;;5035024;28;20178;-66
2024/02/25 01:36:05;;;;;;;2.37;0.93;;;6.10;99.90;;;;;;5036108;28;20175;-69
2024/02/25 01:38:32;;;;;;;1.67;1.00;;;6.10;99.90;;;;;;5034468;28;20204;-68
2024/02/25 01:40:58;;;;;;;1.00;1.00;;;6.10;99.90;;;;;;5035686;28;20432;-64
2024/02/25 01:43:23;;;;;;;5.10;1.37;;;6.10;99.90;;;;;;5034818;28;20429;-66
2024/02/25 01:45:49;;;;;;;1.53;1.00;;;6.10;99.90;;;;;;5035322;28;20425;-67
2024/02/25 01:48:18;;;;;;;1.23;0.90;;;6.10;99.90;;;;;;5035948;28;20202;-68
2024/02/25 01:50:43;;;;;;;1.40;1.10;;;6.20;99.90;;;;;;5034244;28;20218;-67
2024/02/25 01:53:10;;;;;;;1.37;0.90;;;6.10;99.90;;;;;;5067761;28;20428;-66
2024/02/25 01:55:36;;;;;;;2.23;1.10;;;6.20;99.90;;;;;;5035058;28;20560;-65
2024/02/25 01:58:03;;;;;;;0.97;0.70;;;6.30;99.90;;;;;;5036372;28;20481;-69
2024/02/25 02:00:29;;;;;;;3.20;1.30;;;6.30;99.90;;;;;;5034169;28;20507;-65
2024/02/25 02:02:56;;;;;;;1.50;1.13;;;6.20;99.90;;;;;;5035535;28;20433;-68
2024/02/25 02:05:22;;;;;;;2.00;1.17;;;6.20;99.90;;;;;;5035599;28;20427;-69
2024/02/25 02:07:49;;;;;;;1.17;1.07;;;6.20;99.90;;;;;;5034675;28;20436;-66
2024/02/25 02:10:15;;;;;;;3.43;1.13;;;6.20;99.90;;;;;;5034543;28;20465;-70
2024/02/25 02:12:45;;;;;;;2.07;1.30;;;6.30;99.90;;;;;;5035431;28;20452;-66
2024/02/25 02:15:12;;;;;;;1.30;0.90;;;6.30;99.90;;;;;;5035963;28;20432;-69
2024/02/25 02:17:40;;;;;;;0.83;0.83;;;6.30;99.90;;;;;;5035784;28;20420;-70
2024/02/25 02:20:15;;;;;;;1.07;0.87;;;6.40;99.90;;;;;;5035788;28;20475;-70
2024/02/25 02:22:41;;;;;;;1.50;0.87;;;6.40;99.90;;;;;;5035667;28;20413;-65
2024/02/25 02:25:08;;;;;;;1.33;0.80;;;6.40;99.90;;;;;;5035640;28;20433;-65
2024/02/25 02:27:41;;;;;;;1.23;1.07;;;6.40;99.90;;;;;;5017636;28;20428;-64
2024/02/25 02:30:07;;;;;;;1.23;0.87;;;6.40;99.90;;;;;;5050924;28;20468;-68
2024/02/25 02:32:37;;;;;;;1.40;1.10;;;6.40;99.90;;;;;;5034457;28;20927;-69
2024/02/25 02:35:04;;;;;;;1.30;0.83;;;6.30;99.90;;;;;;5035166;28;21000;-65
2024/02/25 02:37:30;;;;;;;1.70;1.20;;;6.40;99.90;;;;;;5034945;28;20427;-66
2024/02/25 02:39:56;;;;;;;1.40;1.23;;;6.30;99.90;;;;;;5036359;28;20449;-69
2024/02/25 02:42:22;;;;;;;1.40;1.13;;;6.40;99.90;;;;;;5032287;28;20474;-66
2024/02/25 02:44:50;;;;;;;1.83;0.80;;;6.30;99.90;;;;;;5035286;28;20569;-67
2024/02/25 02:47:26;;;;;;;1.60;1.23;;;6.30;99.90;;;;;;5033365;28;20460;-65
2024/02/25 02:49:52;;;;;;;1.27;1.00;;;6.30;99.90;;;;;;5017217;28;20477;-69
2024/02/25 02:52:18;;;;;;;1.20;1.10;;;6.30;99.90;;;;;;5035646;28;20981;-66
2024/02/25 02:54:44;;;;;;;1.10;1.00;;;6.30;99.90;;;;;;5034108;28;20428;-65
2024/02/25 02:57:10;;;;;;;1.60;1.17;;;6.30;99.90;;;;;;5034259;28;20432;-69
2024/02/25 02:59:36;;;;;;;1.23;1.13;;;6.30;99.90;;;;;;5035275;28;20511;-66
2024/02/25 03:02:02;;;;;;;3.70;1.37;;;6.20;99.90;;;;;;5035442;28;20543;-67
2024/02/25 03:04:31;;;;;;;1.20;1.10;;;6.20;99.90;;;;;;5033922;28;20433;-67
2024/02/25 03:06:57;;;;;;;1.43;0.90;;;6.20;99.90;;;;;;5034400;28;20951;-66
2024/02/25 03:09:23;;;;;;;1.97;1.10;;;6.20;99.90;;;;;;5035249;28;20506;-68
2024/02/25 03:11:49;;;;;;;1.57;0.80;;;6.10;99.90;;;;;;5035109;28;20567;-68
2024/02/25 03:14:15;;;;;;;1.20;1.10;;;6.10;99.90;;;;;;5034505;28;20188;-66
2024/02/25 03:16:41;;;;;;;1.87;1.40;;;6.20;99.90;;;;;;5034866;28;20421;-66
2024/02/25 03:19:07;;;;;;;1.40;1.20;;;6.10;99.90;;;;;;5035211;28;20433;-70
2024/02/25 03:21:33;;;;;;;3.33;1.40;;;6.10;99.90;;;;;;5032937;28;20187;-66
2024/02/25 03:23:59;;;;;;;1.27;1.17;;;6.20;99.90;;;;;;5033572;28;20502;-68
2024/02/25 03:26:26;;;;;;;1.17;1.07;;;6.10;99.90;;;;;;5034806;28;20428;-69
2024/02/25 03:28:51;;;;;;;1.10;1.00;;;6.10;99.90;;;;;;5035388;28;20218;-68
2024/02/25 03:31:17;;;;;;;1.20;1.10;;;6.10;99.90;;;;;;5034342;28;21281;-68
2024/02/25 03:33:43;;;;;;;1.20;0.93;;;6.10;99.90;;;;;;5034056;28;20197;-67
2024/02/25 03:36:08;;;;;;;2.50;1.40;;;6.20;99.90;;;;;;5034450;28;20254;-70
2024/02/25 03:38:34;;;;;;;1.20;0.87;;;6.20;99.90;;;;;;5035135;28;20189;-69
2024/02/25 03:41:00;;;;;;;1.90;1.37;;;6.20;99.90;;;;;;5034158;28;20276;-67
2024/02/25 03:43:25;;;;;;;1.53;1.03;;;6.20;99.90;;;;;;5034627;28;20271;-66
2024/02/25 03:45:51;;;;;;;0.90;0.80;;;6.20;99.90;;;;;;5034560;28;20177;-66
2024/02/25 03:48:17;;;;;;;2.77;0.97;;;6.20;99.90;;;;;;5034083;28;20202;-67
2024/02/25 03:50:43;;;;;;;2.70;1.10;;;6.20;99.90;;;;;;5034393;28;20209;-67
2024/02/25 03:53:08;;;;;;;2.33;1.30;;;6.20;99.90;;;;;;5033025;28;20216;-68
2024/02/25 03:55:34;;;;;;;1.90;0.83;;;6.30;99.90;;;;;;5032350;28;20428;-65
2024/02/25 03:58:00;;;;;;;0.83;0.83;;;6.30;99.90;;;;;;5032935;28;20754;-70
2024/02/25 04:00:26;;;;;;;1.57;0.97;;;6.20;99.90;;;;;;5033704;28;20421;-69
2024/02/25 04:02:52;;;;;;;1.40;0.97;;;6.30;99.90;;;;;;5034511;28;20228;-67
2024/02/25 04:05:18;;;;;;;1.10;1.00;;;6.20;99.90;;;;;;5033863;28;21126;-66
2024/02/25 04:07:46;;;;;;;1.40;1.00;;;6.30;99.90;;;;;;5033823;28;20225;-69
2024/02/25 04:10:13;;;;;;;2.47;1.30;;;6.30;99.90;;;;;;5033574;28;20472;-68
2024/02/25 04:12:40;;;;;;;1.47;1.07;;;6.20;99.90;;;;;;5033999;28;20594;-67
2024/02/25 04:15:09;;;;;;;1.20;0.93;;;6.20;99.90;;;;;;5033555;28;20428;-65
2024/02/25 04:17:34;;;;;;;1.43;0.90;;;6.30;99.90;;;;;;5031843;28;21263;-65
2024/02/25 04:20:01;;;;;;;0.80;0.80;;;6.30;99.90;;;;;;5034135;28;20413;-69
2024/02/25 04:22:27;;;;;;;1.07;0.93;;;6.30;99.90;;;;;;5033853;28;20620;-68
2024/02/25 04:24:52;;;;;;;1.20;1.10;;;6.30;99.90;;;;;;5032596;28;20523;-67
2024/02/25 04:27:19;;;;;;;0.70;0.60;;;6.40;99.90;;;;;;5028018;28;20179;-67
2024/02/25 04:29:45;;;;;;;1.63;0.90;;;6.40;99.90;;;;;;5016711;28;20771;-68
2024/02/25 04:32:11;;;;;;;1.10;0.80;;;6.30;99.90;;;;;;5032431;28;20436;-67
2024/02/25 04:34:37;;;;;;;0.90;0.80;;;6.30;99.90;;;;;;5032989;28;20432;-65
2024/02/25 04:37:03;;;;;;;2.60;0.90;;;6.30;99.90;;;;;;5065792;28;20983;-68
2024/02/25 04:39:29;;;;;;;1.47;0.90;;;6.30;99.90;;;;;;5033165;28;20198;-65
2024/02/25 04:41:55;;;;;;;1.03;0.90;;;6.30;99.90;;;;;;5033459;28;20778;-65
2024/02/25 04:44:21;;;;;;;1.27;0.80;;;6.30;99.90;;;;;;5032997;28;20532;-65
2024/02/25 04:46:47;;;;;;;0.80;0.70;;;6.30;99.90;;;;;;5033122;28;20433;-69
2024/02/25 04:49:15;;;;;;;1.23;0.80;;;6.30;99.90;;;;;;5033351;28;20471;-70
2024/02/25 04:51:41;;;;;;;2.10;0.90;;;6.30;99.90;;;;;;5032550;28;20511;-69
2024/02/25 04:54:07;;;;;;;0.90;0.80;;;6.40;99.90;;;;;;5034062;28;20459;-68
2024/02/25 04:56:33;;;;;;;1.30;0.87;;;6.40;99.90;;;;;;5032664;28;20186;-65
2024/02/25 04:58:59;;;;;;;1.40;0.80;;;6.30;99.90;;;;;;5032514;28;20421;-68
2024/02/25 05:01:25;;;;;;;1.17;0.77;;;6.30;99.90;;;;;;5033027;28;20260;-65
2024/02/25 05:03:50;;;;;;;0.77;0.60;;;6.30;99.90;;;;;;5032897;28;20189;-68
2024/02/25 05:06:16;;;;;;;1.00;0.90;;;6.30;99.90;;;;;;5032673;28;20425;-70
2024/02/25 05:08:42;;;;;;;0.90;0.80;;;6.30;99.90;;;;;;5032012;28;20192;-66
2024/02/25 05:11:07;;;;;;;0.80;0.80;;;6.30;99.90;;;;;;5030640;28;20194;-67
2024/02/25 05:13:33;;;;;;;0.90;0.73;;;6.30;99.90;;;;;;5033690;28;20196;-68
2024/02/25 05:15:59;;;;;;;1.13;0.80;;;6.30;99.90;;;;;;5035264;28;20182;-67
2024/02/25 05:18:28;;;;;;;1.20;0.80;;;6.30;99.90;;;;;;5035245;28;20919;-65
2024/02/25 05:20:53;;;;;;;0.70;0.70;;;6.30;99.90;;;;;;5036229;28;20193;-70
2024/02/25 05:23:19;;;;;;;1.23;0.80;;;6.30;99.90;;;;;;5036133;28;20429;-69
2024/02/25 05:25:45;;;;;;;1.60;0.83;;;6.30;99.90;;;;;;5035779;28;20193;-65
2024/02/25 05:28:11;;;;;;;1.00;0.80;;;6.30;99.90;;;;;;5035545;28;20192;-69
2024/02/25 05:30:37;;;;;;;1.00;0.73;;;6.30;99.90;;;;;;5036029;28;20467;-70
2024/02/25 05:33:03;;;;;;;0.90;0.87;;;6.40;99.90;;;;;;5035590;28;20185;-69
2024/02/25 05:35:28;;;;;;;2.00;1.07;;;6.30;99.90;;;;;;5034937;28;20190;-68
2024/02/25 05:37:54;;;;;;;0.90;0.80;;;6.30;99.90;;;;;;5036540;28;20212;-66
2024/02/25 05:40:20;;;;;;;0.90;0.83;;;6.20;99.90;;;;;;5035747;28;20182;-67
2024/02/25 05:42:45;;;;;;;1.07;0.77;;;6.20;99.90;;;;;;5037608;28;20187;-66
2024/02/25 05:45:11;;;;;;;0.73;0.73;;;6.20;99.90;;;;;;5032532;28;20312;-67
2024/02/25 05:47:37;;;;;;;1.03;0.97;;;6.10;99.90;;;;;;5036270;28;20205;-68
2024/02/25 05:50:03;;;;;;;1.20;0.70;;;6.10;99.90;;;;;;5035242;28;20209;-65
2024/02/25 05:52:28;;;;;;;1.10;1.00;;;6.10;99.90;;;;;;5035725;28;20594;-68
2024/02/25 05:54:56;;;;;;;1.10;0.90;;;6.10;99.90;;;;;;5036059;28;21040;-66
2024/02/25 05:57:23;;;;;;;0.97;0.87;;;6.10;99.90;;;;;;5034336;28;20186;-66
2024/02/25 05:59:49;;;;;;;1.27;1.00;;;6.10;99.90;;;;;;5035859;28;20528;-69
2024/02/25 06:02:14;;;;;;;1.80;1.00;;;6.10;99.90;;;;;;5035192;28;20851;-67
2024/02/25 06:04:40;;;;;;;1.07;0.90;;;6.10;99.90;;;;;;5036129;28;20177;-69
2024/02/25 06:07:06;;;;;;;1.00;0.80;;;6.20;99.90;;;;;;5035269;28;20870;-68
2024/02/25 06:09:33;;;;;;;0.90;0.70;;;6.20;99.90;;;;;;5032726;28;20266;-65
2024/02/25 06:12:01;;;;;;;1.73;1.17;;;6.20;99.90;;;;;;5036191;28;20604;-65
2024/02/25 06:14:27;;;;;;;0.97;0.77;;;6.10;99.90;;;;;;5034203;28;20418;-68
2024/02/25 06:16:52;;;;;;;0.70;0.70;;;6.10;99.90;;;;;;5035595;28;20486;-68
2024/02/25 06:19:18;;;;;;;1.07;0.80;;;6.20;99.90;;;;;;5034552;28;20658;-65
2024/02/25 06:21:44;;;;;;;1.00;0.90;;;6.20;99.90;;;;;;5036578;28;20289;-67
2024/02/25 06:24:10;;;;;;;0.80;0.70;;;6.20;99.90;;;;;;5034958;28;20534;-69
2024/02/25 06:26:36;;;;;;;2.67;1.10;;;6.20;99.90;;;;;;5035100;28;20424;-67
2024/02/25 06:29:03;;;;;;;1.00;0.90;;;6.20;99.90;;;;;;5035031;28;20539;-67
2024/02/25 06:31:32;;;;;;;2.33;1.10;;;6.20;99.90;;;;;;5034176;28;20472;-66
2024/02/25 06:33:58;;;;;;;1.13;0.90;;;6.10;99.90;;;;;;5034257;28;20432;-67
2024/02/25 06:36:26;;;;;;;1.27;0.80;;;6.20;99.90;;;;;;5034027;28;20512;-67
2024/02/25 06:38:52;;;;;;;1.20;0.93;;;6.20;99.90;;;;;;5034318;28;20425;-66
2024/02/25 06:41:22;;;;;;;1.90;0.90;;;6.30;99.90;;;;;;5034020;28;20428;-69
2024/02/25 06:43:48;;;;;;;1.40;0.90;;;6.20;99.90;;;;;;5033335;28;20269;-66
2024/02/25 06:46:14;;;;;;;1.10;1.00;;;6.20;99.90;;;;;;5033124;28;20968;-67
2024/02/25 06:48:41;;;;;;;1.50;0.87;;;6.20;99.90;;;;;;5034626;28;20444;-69
2024/02/25 06:51:06;;;;;;;1.07;0.80;;;6.30;99.90;;;;;;5035528;28;20421;-66
2024/02/25 06:53:33;;;;;;;1.60;1.10;;;6.30;99.90;;;;;;5017488;28;20934;-68
2024/02/25 06:56:00;;;;;;;1.20;1.10;;;6.30;99.90;;;;;;5034668;28;20190;-67
2024/02/25 06:58:25;;;;;;;1.37;1.00;;;6.20;99.90;;;;;;5034220;28;20489;-64
2024/02/25 07:00:51;;;;;;;1.80;1.30;;;6.20;99.90;;;;;;5032414;28;20520;-68
2024/02/25 07:03:18;;;;;;;1.43;0.90;;;6.20;99.90;;;;;;5032359;28;20178;-69
2024/02/25 07:05:44;;;;;;;1.93;0.90;;;6.20;99.90;;;;;;5035057;28;20178;-68
2024/02/25 07:08:10;;;;;;;2.00;1.23;;;6.20;99.90;;;;;;5034110;28;20472;-69
2024/02/25 07:10:35;;;;;;;1.10;1.00;;;6.20;99.90;;;;;;5034567;28;20512;-65
2024/02/25 07:13:03;;;;;;;1.10;0.93;;;6.30;99.90;;;;;;5034350;28;20252;-68
2024/02/25 07:15:29;;;;;;;0.93;0.83;;;6.30;99.90;;;;;;5030639;28;20927;-68
2024/02/25 07:17:54;;;;;;;1.20;0.90;;;6.30;99.90;;;;;;5032606;28;20425;-67
2024/02/25 07:20:20;;;;;;;0.90;0.80;;;6.30;99.90;;;;;;5031881;28;20667;-69
2024/02/25 07:22:47;;;;;;;1.33;1.00;;;6.30;99.90;;;;;;5032615;28;20252;-70
2024/02/25 07:25:14;;;;;;;1.17;0.90;;;6.40;99.90;;;;;;5031544;28;20520;-68
2024/02/25 07:27:40;;;;;;;1.93;1.10;;;6.40;99.90;;;;;;5032595;28;20471;-65
2024/02/25 07:30:06;;;;;;;1.40;0.80;;;6.40;99.90;;;;;;5033676;28;20822;-68
2024/02/25 07:32:32;;;;;;;1.10;1.00;;;6.40;99.90;;;;;;5033266;28;20435;-67
2024/02/25 07:34:59;;;;;;;1.27;1.00;;;6.40;99.90;;;;;;5031594;28;20444;-65
2024/02/25 07:37:26;;;;;;;0.83;0.67;;;6.40;99.90;;;;;;5030597;28;20555;-67
2024/02/25 07:39:52;;;;;;;1.50;1.00;;;6.40;99.90;;;;;;5033399;28;20513;-68
2024/02/25 07:42:18;;;;;;;1.87;0.90;;;6.50;99.90;;;;;;5032000;28;20421;-70
2024/02/25 07:44:43;;;;;;;0.80;0.80;;;6.50;99.90;;;;;;5034286;28;20460;-68
2024/02/25 07:47:09;;;;;;;1.00;0.90;;;6.60;99.90;;;;;;5032974;28;20591;-66
2024/02/25 07:49:35;;;;;;;1.03;0.90;;;6.60;99.90;;;;;;5033686;28;20237;-69
2024/02/25 07:52:00;;;;;;;0.80;0.70;;;6.70;99.90;;;;;;5033096;28;20209;-66
2024/02/25 07:54:26;;;;;;;1.67;1.17;;;6.70;99.90;;;;;;5033391;28;20177;-67
2024/02/25 07:56:52;;;;;;;1.20;1.10;;;6.60;99.90;;;;;;5033386;28;20714;-70
2024/02/25 07:59:17;;;;;;;0.90;0.80;;;6.70;99.90;;;;;;5031470;28;20178;-66
2024/02/25 08:01:43;;;;;;;2.03;1.00;;;6.60;99.90;;;;;;5033183;28;20197;-69
2024/02/25 08:04:09;;;;;;;1.30;1.20;;;6.70;99.90;;;;;;5031102;28;20243;-69
2024/02/25 08:06:35;;;;;;;1.23;1.10;;;6.70;99.90;;;;;;5031933;28;20259;-67
2024/02/25 08:09:00;;;;;;;1.27;0.90;;;6.70;99.90;;;;;;5031987;28;20178;-67
2024/02/25 08:11:26;;;;;;;1.70;1.27;;;6.70;99.90;;;;;;5029826;28;20437;-66
2024/02/25 08:13:52;;;;;;;1.63;1.10;;;6.70;99.90;;;;;;5032852;28;20230;-65
2024/02/25 08:16:19;;;;;;;1.20;1.10;;;6.80;99.90;;;;;;5029970;28;20500;-70
2024/02/25 08:18:47;;;;;;;1.10;1.00;;;6.80;99.90;;;;;;5032757;28;20536;-68
2024/02/25 08:21:13;;;;;;;1.10;1.00;;;6.80;99.90;;;;;;5030805;28;21072;-67
2024/02/25 08:23:43;;;;;;;2.30;0.90;;;6.90;99.90;;;;;;5032452;28;20756;-66
2024/02/25 08:26:09;;;;;;;0.70;0.50;;;6.90;99.90;;;;;;5025451;28;20459;-65
2024/02/25 08:28:38;;;;;;;0.83;0.63;;;6.90;99.90;;;;;;5022402;28;20448;-66
2024/02/25 08:31:04;;;;;;;1.23;0.90;;;6.90;99.90;;;;;;5029335;28;20824;-66
2024/02/25 08:33:30;;;;;;;0.80;0.70;;;7.00;99.90;;;;;;5032136;28;20445;-66
2024/02/25 08:35:56;;;;;;;1.53;1.00;;;7.00;99.90;;;;;;5030470;28;20506;-67
2024/02/25 08:38:22;;;;;;;0.80;0.73;;;7.10;99.90;;;;;;5029298;28;20278;-65
2024/02/25 08:40:47;;;;;;;0.80;0.80;;;7.10;99.90;;;;;;5031050;28;20528;-66
2024/02/25 08:43:13;;;;;;;0.50;0.50;;;7.10;99.90;;;;;;5032205;28;20198;-67
2024/02/25 08:45:39;;;;;;;1.03;0.90;;;7.20;99.90;;;;;;5030343;28;20186;-69
2024/02/25 08:48:05;;;;;;;1.03;0.60;;;7.10;99.90;;;;;;5031178;28;20194;-68
2024/02/25 08:50:30;;;;;;;0.70;0.70;;;7.10;99.90;;;;;;5037150;28;20262;-66
2024/02/25 08:52:56;;;;;;;0.90;0.70;;;7.20;99.90;;;;;;5035340;28;20467;-67
2024/02/25 08:55:22;;;;;;;0.83;0.70;;;7.10;99.90;;;;;;5035085;28;20225;-65
2024/02/25 08:57:47;;;;;;;0.83;0.80;;;7.10;99.90;;;;;;5034897;28;20990;-65
2024/02/25 09:00:13;;;;;;;0.70;0.70;;;7.20;99.90;;;;;;5047614;28;20289;-66
2024/02/25 09:02:39;;;;;;;1.40;0.73;;;7.20;99.90;;;;;;5033654;28;20243;-68
2024/02/25 09:05:06;;;;;;;0.90;0.60;;;7.20;99.90;;;;;;5033211;28;20864;-68
2024/02/25 09:07:31;;;;;;;1.07;0.70;;;7.30;99.90;;;;;;5036164;28;20274;-67
2024/02/25 09:09:58;;;;;;;1.10;0.87;;;7.30;99.90;;;;;;5034406;28;20476;-70
2024/02/25 09:12:23;;;;;;;0.70;0.50;;;7.20;99.90;;;;;;5035305;28;20202;-67
2024/02/25 09:14:50;;;;;;;0.70;0.60;;;7.10;99.90;;;;;;5035107;28;20466;-69
2024/02/25 09:17:16;;;;;;;0.90;0.80;;;7.10;99.90;;;;;;5034046;28;21084;-67
2024/02/25 09:19:42;;;;;;;0.90;0.53;;;7.20;99.90;;;;;;5034419;28;20421;-66
2024/02/25 09:22:08;;;;;;;1.50;0.80;;;7.10;99.90;;;;;;5032814;28;20444;-65
2024/02/25 09:24:33;;;;;;;2.27;0.77;;;7.10;99.90;;;;;;5033177;28;20432;-66
2024/02/25 09:26:59;;;;;;;1.47;0.93;;;7.20;99.90;;;;;;5033131;28;20182;-69
2024/02/25 09:29:25;;;;;;;1.30;0.80;;;7.20;99.90;;;;;;5034168;28;20214;-67
2024/02/25 09:31:54;;;;;;;2.43;1.33;;;7.20;99.90;;;;;;5034286;28;20186;-68
2024/02/25 09:34:19;;;;;;;1.30;0.70;;;7.30;99.90;;;;;;5032056;28;20233;-68
2024/02/25 09:36:45;;;;;;;0.73;0.53;;;7.30;99.90;;;;;;5034440;28;20468;-66
2024/02/25 09:39:12;;;;;;;1.00;0.73;;;7.40;99.90;;;;;;5033076;28;20182;-66
2024/02/25 09:41:41;;;;;;;1.53;0.70;;;7.40;99.90;;;;;;5033885;28;20232;-67
2024/02/25 09:44:20;;;;;;;0.70;0.50;;;7.40;99.90;;;;;;5032908;28;20432;-69
2024/02/25 09:46:46;;;;;;;1.17;0.80;;;7.40;99.90;;;;;;5033664;28;20520;-66
2024/02/25 09:49:14;;;;;;;1.23;0.60;;;7.50;99.90;;;;;;5032410;28;21132;-68
2024/02/25 09:51:41;;;;;;;1.27;0.60;;;7.50;99.90;;;;;;5033205;28;20436;-67
2024/02/25 09:54:07;;;;;;;1.40;0.70;;;7.60;99.90;;;;;;5032402;28;20427;-65
2024/02/25 09:56:33;;;;;;;1.17;0.80;;;7.60;99.90;;;;;;5031849;28;20443;-64
2024/02/25 09:58:58;;;;;;;0.63;0.63;;;7.60;99.90;;;;;;5029037;28;21061;-66
2024/02/25 10:01:27;;;;;;;2.70;0.80;;;7.60;99.90;;;;;;5033201;28;20247;-69
2024/02/25 10:03:53;;;;;;;1.03;0.80;;;7.70;99.90;;;;;;5032047;28;20193;-67
2024/02/25 10:06:18;;;;;;;2.03;0.80;;;7.70;99.90;;;;;;5033120;28;20927;-68
2024/02/25 10:08:49;;;;;;;0.87;0.67;;;7.70;99.90;;;;;;5034528;28;20269;-66
2024/02/25 10:11:15;;;;;;;1.30;0.70;;;7.80;99.90;;;;;;5031901;28;20200;-69
2024/02/25 10:13:43;;;;;;;0.80;0.70;;;7.90;99.90;;;;;;5035164;28;20429;-67
2024/02/25 10:16:18;;;;;;;1.23;0.77;;;7.90;99.90;;;;;;5033758;28;20526;-69
2024/02/25 10:18:47;;;;;;;0.87;0.60;;;7.90;99.90;;;;;;5034740;28;20463;-69
2024/02/25 10:21:13;;;;;;;0.70;0.67;;;7.90;99.90;;;;;;5028297;28;20801;-69
2024/02/25 10:23:39;;;;;;;0.80;0.67;;;7.90;99.90;;;;;;5030867;28;20425;-69
2024/02/25 10:26:23;;;;;;;0.90;0.80;;;8.10;99.90;;;;;;5029145;28;20221;-69
2024/02/25 10:29:05;;;;;;;1.87;0.73;;;8.40;99.90;;;;;;5046600;28;20832;-70
2024/02/25 10:31:32;;;;;;;1.23;0.80;;;8.60;99.90;;;;;;5031335;28;20452;-66
2024/02/25 10:33:58;;;;;;;0.77;0.70;;;8.80;99.90;;;;;;5032399;28;20437;-67
2024/02/25 10:36:27;;;;;;;1.30;0.67;;;8.90;99.90;;;;;;5031601;28;20555;-67
2024/02/25 10:38:56;;;;;;;1.60;0.90;;;9.20;99.90;;;;;;5033074;28;20431;-67
2024/02/25 10:41:23;;;;;;;1.70;1.13;;;9.40;99.90;;;;;;5029783;28;20874;-70
2024/02/25 10:43:56;;;;;;;2.00;0.90;;;9.50;99.90;;;;;;5032654;28;21380;-68
2024/02/25 10:46:42;;;;;;;1.30;0.90;;;9.50;99.90;;;;;;5031717;28;20437;-69
2024/02/25 10:49:12;;;;;;;1.40;0.90;;;9.50;99.90;;;;;;5032241;28;20455;-67
2024/02/25 10:51:39;;;;;;;1.00;0.80;;;9.70;99.90;;;;;;5032597;28;20424;-67
2024/02/25 10:54:06;;;;;;;1.13;0.90;;;10.00;99.90;;;;;;5031258;28;20459;-69
2024/02/25 10:56:34;;;;;;;1.50;0.90;;;10.00;99.90;;;;;;5030471;28;20946;-68
2024/02/25 10:59:00;;;;;;;1.53;0.97;;;10.20;99.90;;;;;;5032189;28;20515;-68
2024/02/25 11:01:27;;;;;;;0.93;0.80;;;10.40;99.90;;;;;;5032734;28;20915;-68
2024/02/25 11:03:53;;;;;;;0.93;0.83;;;10.30;99.90;;;;;;5032243;28;20425;-66
2024/02/25 11:06:31;;;;;;;1.43;1.07;;;10.10;99.90;;;;;;5033214;28;20487;-66
2024/02/25 11:09:12;;;;;;;3.70;1.00;;;10.00;99.90;;;;;;5031942;28;20429;-69
2024/02/25 11:11:39;;;;;;;3.17;0.70;;;10.00;99.90;;;;;;5031990;28;20440;-67
2024/02/25 11:14:12;;;;;;;1.40;1.30;;;9.90;99.90;;;;;;5031222;28;20427;-67
2024/02/25 11:16:45;;;;;;;1.23;1.00;;;9.80;99.90;;;;;;5033506;28;20428;-67
2024/02/25 11:19:15;;;;;;;1.60;1.17;;;9.70;99.90;;;;;;5033066;28;20452;-68
2024/02/25 11:21:41;;;;;;;1.67;1.00;;;9.60;99.90;;;;;;5033489;28;20539;-68
2024/02/25 11:24:12;;;;;;;1.13;1.00;;;9.50;99.90;;;;;;5032296;28;20519;-67
2024/02/25 11:26:42;;;;;;;0.93;0.90;;;9.40;99.90;;;;;;5029982;28;20654;-68
2024/02/25 11:29:27;;;;;;;1.50;1.20;;;9.40;99.90;;;;;;5028931;28;20432;-70
2024/02/25 11:32:00;;;;;;;0.80;0.77;;;9.30;99.90;;;;;;5030009;28;20448;-70
2024/02/25 11:34:30;;;;;;;0.80;0.80;;;9.30;99.90;;;;;;5030895;28;20478;-66
2024/02/25 11:36:57;;;;;;;0.60;0.60;;;9.20;99.90;;;;;;5028664;28;20523;-67
2024/02/25 11:39:29;;;;;;;1.37;0.80;;;9.20;99.90;;;;;;5032441;28;20511;-70
2024/02/25 11:41:56;;;;;;;1.03;0.73;;;9.30;99.90;;;;;;5032199;28;20436;-69
2024/02/25 11:44:27;;;;;;;2.40;0.63;;;9.20;99.90;;;;;;5030400;28;20430;-69
2024/02/25 11:46:57;;;;;;;1.07;0.73;;;9.20;99.90;;;;;;5030956;28;20561;-69
2024/02/25 11:49:25;;;;;;;1.53;1.00;;;9.30;99.90;;;;;;5030135;28;20526;-66
2024/02/25 11:51:52;;;;;;;1.03;0.93;;;9.40;99.90;;;;;;5028433;28;20436;-67
2024/02/25 11:54:19;;;;;;;0.70;0.67;;;9.60;99.90;;;;;;5030957;28;20479;-67
2024/02/25 11:56:45;;;;;;;1.00;0.80;;;9.80;99.90;;;;;;5030542;28;21199;-67
2024/02/25 11:59:12;;;;;;;1.07;0.80;;;9.90;99.90;;;;;;5031170;28;20816;-67
2024/02/25 12:01:38;;;;;;;1.43;0.87;;;10.00;99.90;;;;;;5061681;28;20428;-67
2024/02/25 12:04:04;;;;;;;0.90;0.77;;;10.10;99.90;;;;;;5030861;28;20532;-69
2024/02/25 12:06:35;;;;;;;0.93;0.70;;;10.10;99.90;;;;;;5030803;28;20439;-67
2024/02/25 12:09:02;;;;;;;1.23;0.53;;;10.30;99.90;;;;;;5032142;28;20433;-71
2024/02/25 12:11:28;;;;;;;3.67;0.90;;;10.30;99.90;;;;;;5031820;28;20429;-67
2024/02/25 12:14:17;;;;;;;1.00;0.90;;;10.40;99.90;;;;;;5032701;28;20434;-68
2024/02/25 12:16:44;;;;;;;2.10;0.70;;;10.30;99.90;;;;;;5032296;28;20432;-68
2024/02/25 12:19:11;;;;;;;0.90;0.60;;;10.20;99.90;;;;;;5033124;28;20420;-68
2024/02/25 12:21:37;;;;;;;1.93;0.70;;;10.20;99.90;;;;;;5031153;28;20465;-70
2024/02/25 12:24:06;;;;;;;1.00;0.70;;;10.20;99.90;;;;;;5036129;28;20432;-66
2024/02/25 12:26:47;;;;;;;1.20;0.80;;;10.20;99.90;;;;;;5038284;28;20818;-66
2024/02/25 12:29:15;;;;;;;2.00;0.83;;;10.20;99.90;;;;;;5034424;28;20560;-67
2024/02/25 12:31:42;;;;;;;1.60;0.83;;;10.10;99.90;;;;;;5033607;28;20460;-69
2024/02/25 12:34:08;;;;;;;2.87;0.80;;;10.00;99.90;;;;;;5032763;28;20774;-66
2024/02/25 12:36:33;;;;;;;1.53;0.67;;;10.00;99.90;;;;;;5035686;28;20439;-70
2024/02/25 12:38:59;;;;;;;1.83;0.80;;;9.90;99.90;;;;;;5033300;28;21045;-69
2024/02/25 12:41:33;;;;;;;1.13;0.73;;;10.00;99.90;;;;;;5035199;28;20192;-65
2024/02/25 12:43:58;;;;;;;1.10;0.80;;;9.80;99.90;;;;;;5034840;28;20714;-71
2024/02/25 12:46:25;;;;;;;1.33;0.80;;;9.70;99.90;;;;;;5035346;28;20424;-67
2024/02/25 12:48:50;;;;;;;2.03;0.70;;;9.60;99.90;;;;;;5035485;28;20197;-71
2024/02/25 12:51:17;;;;;;;0.90;0.60;;;9.60;99.90;;;;;;5034664;28;21073;-67
2024/02/25 12:53:45;;;;;;;1.67;0.90;;;9.50;99.90;;;;;;5026777;28;20198;-69